createdAt,value
2023-02-28T00:01:03.940Z,7.80
2023-02-28T00:03:38.671Z,8.20
2023-02-28T00:06:13.181Z,7.70
2023-02-28T00:08:47.000Z,7.30
2023-02-28T00:11:21.402Z,8.20
2023-02-28T00:13:55.179Z,8.40
2023-02-28T00:16:29.153Z,8.90
2023-02-28T00:19:02.928Z,8.40
2023-02-28T00:21:36.998Z,10.20
2023-02-28T00:24:10.997Z,8.60
2023-02-28T00:26:44.459Z,8.90
2023-02-28T00:29:18.107Z,8.10
2023-02-28T00:31:51.695Z,8.60
2023-02-28T00:34:25.209Z,8.80
2023-02-28T00:37:00.123Z,9.00
2023-02-28T00:39:33.894Z,8.90
2023-02-28T00:42:08.912Z,10.20
2023-02-28T00:44:42.302Z,10.10
2023-02-28T00:47:15.784Z,9.60
2023-02-28T00:49:50.500Z,8.90
2023-02-28T00:52:24.188Z,9.00
2023-02-28T00:54:58.874Z,9.60
2023-02-28T00:57:32.926Z,8.40
2023-02-28T01:00:07.546Z,9.20
2023-02-28T01:02:41.501Z,10.30
2023-02-28T01:05:15.000Z,8.70
2023-02-28T01:07:48.618Z,9.20
2023-02-28T01:10:22.461Z,9.10
2023-02-28T01:12:56.201Z,9.30
2023-02-28T01:15:29.664Z,9.80
2023-02-28T01:18:03.371Z,9.20
2023-02-28T01:20:41.408Z,8.70
2023-02-28T01:23:15.520Z,8.90
2023-02-28T01:25:49.097Z,9.10
2023-02-28T01:28:22.998Z,8.40
2023-02-28T01:30:57.655Z,8.90
2023-02-28T01:33:31.730Z,9.50
2023-02-28T01:36:09.295Z,9.10
2023-02-28T01:38:43.396Z,8.30
2023-02-28T01:41:21.971Z,8.40
2023-02-28T01:44:06.739Z,8.40
2023-02-28T01:46:40.679Z,9.00
2023-02-28T01:49:19.542Z,8.90
2023-02-28T01:54:29.658Z,8.60
2023-02-28T01:57:08.456Z,9.30
2023-02-28T01:59:47.878Z,9.20
2023-02-28T02:02:24.661Z,9.80
2023-02-28T02:05:02.984Z,9.20
2023-02-28T02:07:39.720Z,10.20
2023-02-28T02:10:18.360Z,9.70
2023-02-28T02:13:09.146Z,10.50
2023-02-28T02:15:47.472Z,9.00
2023-02-28T02:21:40.492Z,9.30
2023-02-28T02:24:51.877Z,9.00
2023-02-28T02:27:49.433Z,8.10
2023-02-28T02:30:50.220Z,9.70
2023-02-28T02:34:10.957Z,9.70
2023-02-28T02:36:50.879Z,10.10
2023-02-28T02:39:32.715Z,8.30
2023-02-28T02:42:14.678Z,9.50
2023-02-28T02:44:56.871Z,8.20
2023-02-28T02:47:34.583Z,8.60
2023-02-28T02:50:16.331Z,9.50
2023-02-28T02:52:54.830Z,9.30
2023-02-28T02:55:29.628Z,8.10
2023-02-28T02:58:07.802Z,8.60
2023-02-28T03:00:46.542Z,8.40
2023-02-28T03:03:30.326Z,7.70
2023-02-28T03:06:05.295Z,8.80
2023-02-28T03:08:41.378Z,7.70
2023-02-28T03:11:18.397Z,8.30
2023-02-28T03:14:04.077Z,8.50
2023-02-28T03:17:01.143Z,7.30
2023-02-28T03:19:58.705Z,8.20
2023-02-28T03:22:52.475Z,7.80
2023-02-28T03:25:41.033Z,8.90
2023-02-28T03:28:22.783Z,8.00
2023-02-28T03:31:03.714Z,8.60
2023-02-28T03:33:42.085Z,7.80
2023-02-28T03:36:21.414Z,7.70
2023-02-28T03:39:04.121Z,7.60
2023-02-28T03:41:44.480Z,8.10
2023-02-28T03:44:24.581Z,7.60
2023-02-28T03:47:02.914Z,7.50
2023-02-28T03:49:44.641Z,7.30
2023-02-28T03:52:21.158Z,8.40
2023-02-28T03:55:01.971Z,8.10
2023-02-28T03:57:40.465Z,8.50
2023-02-28T04:02:54.258Z,9.10
2023-02-28T04:05:29.553Z,8.20
2023-02-28T04:08:10.561Z,8.20
2023-02-28T04:10:46.150Z,8.70
2023-02-28T04:13:19.820Z,7.70
2023-02-28T04:15:53.984Z,8.00
2023-02-28T04:18:28.032Z,8.10
2023-02-28T04:21:04.617Z,8.00
2023-02-28T04:23:38.762Z,7.60
2023-02-28T04:26:12.181Z,7.80
2023-02-28T04:28:45.468Z,7.50
2023-02-28T04:31:19.193Z,8.00
2023-02-28T04:33:52.821Z,8.40
2023-02-28T04:36:26.358Z,8.20
2023-02-28T04:39:00.959Z,7.90
2023-02-28T04:41:35.175Z,8.40
2023-02-28T04:44:09.445Z,8.60
2023-02-28T04:46:43.482Z,7.90
2023-02-28T04:49:17.793Z,7.80
2023-02-28T04:51:51.254Z,8.00
2023-02-28T04:54:25.172Z,8.40
2023-02-28T04:56:58.781Z,8.40
2023-02-28T04:59:32.715Z,8.50
2023-02-28T05:02:08.259Z,8.20
2023-02-28T05:04:42.398Z,7.90
2023-02-28T05:07:16.056Z,8.10
2023-02-28T05:09:49.822Z,7.20
2023-02-28T05:12:24.020Z,7.20
2023-02-28T05:14:57.778Z,7.70
2023-02-28T05:17:31.369Z,8.30
2023-02-28T05:20:15.035Z,8.30
2023-02-28T05:22:49.458Z,7.40
2023-02-28T05:25:24.641Z,7.40
2023-02-28T05:27:58.276Z,8.10
2023-02-28T05:30:32.954Z,7.90
2023-02-28T05:33:07.074Z,9.50
2023-02-28T05:35:43.387Z,8.50
2023-02-28T05:38:17.600Z,9.20
2023-02-28T05:40:51.521Z,8.80
2023-02-28T05:43:25.507Z,10.00
2023-02-28T05:45:59.307Z,9.60
2023-02-28T05:48:33.249Z,11.40
2023-02-28T05:51:07.684Z,9.70
2023-02-28T05:53:41.558Z,9.90
2023-02-28T05:56:15.645Z,9.40
2023-02-28T05:58:49.418Z,9.20
2023-02-28T06:01:33.805Z,8.50
2023-02-28T06:04:14.288Z,9.50
2023-02-28T06:06:54.057Z,10.40
2023-02-28T06:09:27.864Z,10.00
2023-02-28T06:12:04.345Z,9.40
2023-02-28T06:14:38.974Z,9.90
2023-02-28T06:17:13.242Z,10.50
2023-02-28T06:19:46.927Z,10.00
2023-02-28T06:22:20.721Z,10.00
2023-02-28T06:24:56.091Z,9.90
2023-02-28T06:27:29.767Z,10.40
2023-02-28T06:30:03.859Z,9.90
2023-02-28T06:32:37.528Z,10.80
2023-02-28T06:35:12.009Z,11.50
2023-02-28T06:37:45.978Z,10.40
2023-02-28T06:40:20.491Z,9.80
2023-02-28T06:42:53.912Z,11.30
2023-02-28T06:45:27.394Z,11.80
2023-02-28T06:48:01.595Z,11.40
2023-02-28T06:50:35.582Z,12.20
2023-02-28T06:53:09.020Z,13.40
2023-02-28T06:55:44.885Z,11.60
2023-02-28T06:58:20.410Z,11.70
2023-02-28T07:00:55.590Z,13.70
2023-02-28T07:03:29.096Z,13.00
2023-02-28T07:06:03.098Z,13.30
2023-02-28T07:08:37.111Z,15.60
2023-02-28T07:11:11.016Z,11.80
2023-02-28T07:13:44.565Z,15.10
2023-02-28T07:16:18.331Z,11.70
2023-02-28T07:18:52.288Z,11.00
2023-02-28T07:21:26.351Z,11.20
2023-02-28T07:24:00.485Z,11.40
2023-02-28T07:26:35.366Z,10.20
2023-02-28T07:29:09.496Z,8.30
2023-02-28T07:31:43.351Z,8.80
2023-02-28T07:34:17.348Z,8.50
2023-02-28T07:36:54.997Z,8.70
2023-02-28T07:39:28.602Z,10.10
2023-02-28T07:42:05.151Z,10.70
2023-02-28T07:44:42.014Z,9.00
2023-02-28T07:47:15.555Z,9.70
2023-02-28T07:49:49.636Z,8.60
2023-02-28T07:52:24.578Z,7.90
2023-02-28T07:54:59.033Z,8.80
2023-02-28T07:57:36.578Z,7.80
2023-02-28T08:00:13.959Z,7.40
2023-02-28T08:02:47.540Z,7.60
2023-02-28T08:05:22.302Z,7.70
2023-02-28T08:07:56.430Z,8.00
2023-02-28T08:10:30.588Z,8.20
2023-02-28T08:13:04.356Z,19.10
2023-02-28T08:15:38.369Z,9.20
2023-02-28T08:18:11.919Z,9.00
2023-02-28T08:20:46.030Z,8.30
2023-02-28T08:23:20.015Z,7.80
2023-02-28T08:25:59.232Z,8.50
2023-02-28T08:28:33.903Z,9.20
2023-02-28T08:31:12.264Z,8.20
2023-02-28T08:33:47.218Z,8.40
2023-02-28T08:36:21.879Z,9.10
2023-02-28T08:38:55.691Z,7.80
2023-02-28T08:41:29.853Z,8.90
2023-02-28T08:44:04.197Z,9.40
2023-02-28T08:46:37.751Z,9.20
2023-02-28T08:49:13.107Z,9.90
2023-02-28T08:51:47.067Z,8.70
2023-02-28T08:54:20.876Z,8.90
2023-02-28T08:56:54.152Z,10.00
2023-02-28T08:59:27.539Z,8.90
2023-02-28T09:02:01.054Z,8.20
2023-02-28T09:04:36.051Z,9.60
2023-02-28T09:07:10.315Z,9.10
2023-02-28T09:09:55.063Z,8.90
2023-02-28T09:12:30.241Z,8.70
2023-02-28T09:15:04.544Z,9.00
2023-02-28T09:17:38.459Z,9.80
2023-02-28T09:20:14.955Z,9.60
2023-02-28T09:22:48.495Z,10.00
2023-02-28T09:25:22.219Z,9.70
2023-02-28T09:27:55.905Z,9.90
2023-02-28T09:30:30.148Z,9.30
2023-02-28T09:33:04.615Z,9.20
2023-02-28T09:35:39.110Z,11.00
2023-02-28T09:38:13.388Z,10.30
2023-02-28T09:40:53.707Z,9.90
2023-02-28T09:43:29.812Z,10.00
2023-02-28T09:46:08.575Z,10.00
2023-02-28T09:51:36.544Z,10.00
2023-02-28T09:54:15.199Z,10.60
2023-02-28T09:59:39.826Z,10.20
2023-02-28T10:02:35.719Z,10.60
2023-02-28T10:05:12.731Z,10.00
2023-02-28T10:08:03.047Z,10.30
2023-02-28T10:10:41.665Z,10.30
2023-02-28T10:13:26.957Z,10.20
2023-02-28T10:16:06.199Z,10.80
2023-02-28T10:18:47.887Z,9.90
2023-02-28T10:21:28.755Z,10.00
2023-02-28T10:24:23.298Z,10.20
2023-02-28T10:27:02.515Z,9.70
2023-02-28T10:29:37.078Z,10.90
2023-02-28T10:32:13.934Z,10.30
2023-02-28T10:34:47.723Z,9.90
2023-02-28T10:37:22.395Z,10.70
2023-02-28T10:39:55.950Z,11.30
2023-02-28T10:42:31.446Z,11.90
2023-02-28T10:45:15.796Z,11.30
2023-02-28T10:47:58.496Z,10.80
2023-02-28T10:50:40.698Z,10.40
2023-02-28T10:53:30.780Z,10.20
2023-02-28T10:56:07.878Z,10.80
2023-02-28T10:58:52.963Z,13.70
2023-02-28T11:01:28.085Z,11.30
2023-02-28T11:04:01.653Z,10.40
2023-02-28T11:06:37.119Z,10.10
2023-02-28T11:09:23.501Z,10.20
2023-02-28T11:11:57.955Z,11.20
2023-02-28T11:14:35.519Z,10.50
2023-02-28T11:17:23.004Z,11.30
2023-02-28T11:19:59.007Z,10.20
2023-02-28T11:22:37.241Z,10.60
2023-02-28T11:25:23.599Z,10.50
2023-02-28T11:27:58.927Z,10.90
2023-02-28T11:30:36.546Z,10.10
2023-02-28T11:33:29.182Z,10.20
2023-02-28T11:36:07.089Z,10.50
2023-02-28T11:38:41.058Z,10.10
2023-02-28T11:41:47.923Z,9.90
2023-02-28T11:44:31.770Z,10.30
2023-02-28T11:47:12.552Z,10.60
2023-02-28T11:49:59.523Z,11.10
2023-02-28T11:52:44.215Z,10.40
2023-02-28T11:55:23.523Z,9.30
2023-02-28T11:58:19.788Z,10.30
2023-02-28T12:01:19.831Z,9.20
2023-02-28T12:04:06.316Z,10.40
2023-02-28T12:06:48.570Z,10.50
2023-02-28T12:09:44.269Z,9.40
2023-02-28T12:12:31.334Z,9.90
2023-02-28T12:15:26.454Z,9.90
2023-02-28T12:18:16.108Z,10.50
2023-02-28T12:20:57.043Z,10.40
2023-02-28T12:23:50.807Z,10.90
2023-02-28T12:26:35.075Z,10.50
2023-02-28T12:29:18.503Z,10.60
2023-02-28T12:31:56.458Z,10.70
2023-02-28T12:34:35.991Z,11.70
2023-02-28T12:37:16.906Z,9.00
2023-02-28T12:39:54.349Z,10.00
2023-02-28T12:42:34.053Z,10.60
2023-02-28T12:45:15.473Z,10.90
2023-02-28T12:47:53.693Z,10.70
2023-02-28T12:50:31.418Z,10.90
2023-02-28T12:53:09.487Z,11.40
2023-02-28T12:55:51.651Z,11.50
2023-02-28T12:58:35.621Z,11.50
2023-02-28T13:01:54.924Z,10.40
2023-02-28T13:04:52.857Z,10.90
2023-02-28T13:08:02.753Z,11.90
2023-02-28T13:10:47.376Z,10.80
2023-02-28T13:13:23.224Z,11.30
2023-02-28T13:16:09.042Z,12.40
2023-02-28T13:18:46.275Z,11.40
2023-02-28T13:21:30.384Z,10.40
2023-02-28T13:24:07.486Z,11.40
2023-02-28T13:27:15.851Z,11.80
2023-02-28T13:32:47.464Z,10.90
2023-02-28T13:35:47.183Z,11.10
2023-02-28T13:38:36.594Z,11.10
2023-02-28T13:41:45.228Z,10.70
2023-02-28T13:44:24.456Z,11.00
2023-02-28T13:47:31.535Z,11.70
2023-02-28T13:50:26.548Z,11.00
2023-02-28T13:53:36.832Z,9.70
2023-02-28T13:56:25.252Z,10.10
2023-02-28T13:59:07.138Z,9.80
2023-02-28T14:01:59.658Z,10.40
2023-02-28T14:04:54.019Z,10.50
2023-02-28T14:07:35.628Z,10.50
2023-02-28T14:10:28.773Z,9.70
2023-02-28T14:13:15.325Z,9.50
2023-02-28T14:16:00.709Z,10.40
2023-02-28T14:18:37.565Z,9.50
2023-02-28T14:21:27.363Z,9.60
2023-02-28T14:24:25.188Z,10.40
2023-02-28T14:27:37.566Z,9.70
2023-02-28T14:30:44.174Z,9.30
2023-02-28T14:33:29.877Z,9.10
2023-02-28T14:36:21.924Z,9.10
2023-02-28T14:38:59.288Z,9.40
2023-02-28T14:41:38.616Z,9.10
2023-02-28T14:44:21.706Z,9.00
2023-02-28T14:46:57.584Z,9.40
2023-02-28T14:49:33.312Z,8.70
2023-02-28T14:52:17.816Z,8.50
2023-02-28T14:54:57.039Z,8.50
2023-02-28T14:57:33.753Z,8.60
2023-02-28T15:00:16.853Z,9.60
2023-02-28T15:02:50.932Z,8.90
2023-02-28T15:05:36.233Z,9.20
2023-02-28T15:08:17.088Z,8.80
2023-02-28T15:10:56.936Z,9.10
2023-02-28T15:13:39.289Z,9.90
2023-02-28T15:16:18.353Z,10.00
2023-02-28T15:18:55.570Z,10.00
2023-02-28T15:21:31.689Z,9.20
2023-02-28T15:24:10.328Z,9.30
2023-02-28T15:29:22.002Z,9.70
2023-02-28T15:32:03.470Z,8.80
2023-02-28T15:34:43.508Z,9.10
2023-02-28T15:37:43.368Z,9.60
2023-02-28T15:40:20.670Z,9.70
2023-02-28T15:43:16.912Z,10.10
2023-02-28T15:45:52.723Z,9.30
2023-02-28T15:48:28.464Z,10.10
2023-02-28T15:51:09.120Z,10.50
2023-02-28T15:53:54.595Z,10.80
2023-02-28T15:56:32.764Z,9.80
2023-02-28T15:59:10.759Z,10.60
2023-02-28T16:01:44.682Z,11.00
2023-02-28T16:04:21.856Z,10.90
2023-02-28T16:07:06.365Z,11.70
2023-02-28T16:09:40.674Z,11.60
2023-02-28T16:12:15.609Z,10.70
2023-02-28T16:14:50.088Z,11.40
2023-02-28T16:17:25.894Z,12.30
2023-02-28T16:20:00.794Z,11.70
2023-02-28T16:22:34.800Z,10.50
2023-02-28T16:25:11.343Z,12.90
2023-02-28T16:27:51.229Z,13.50
2023-02-28T16:30:28.274Z,12.70
2023-02-28T16:33:02.818Z,12.30
2023-02-28T16:35:37.390Z,13.60
2023-02-28T16:38:12.446Z,14.10
2023-02-28T16:40:48.933Z,13.30
2023-02-28T16:43:26.080Z,14.20
2023-02-28T16:46:05.075Z,13.90
2023-02-28T16:48:43.289Z,15.10
2023-02-28T16:51:21.155Z,15.50
2023-02-28T16:53:55.007Z,14.60
2023-02-28T16:56:31.000Z,13.20
2023-02-28T16:59:07.053Z,14.50
2023-02-28T17:01:41.527Z,14.80
2023-02-28T17:04:17.121Z,15.90
2023-02-28T17:06:52.384Z,15.20
2023-02-28T17:09:40.242Z,15.30
2023-02-28T17:12:18.160Z,16.70
2023-02-28T17:14:52.562Z,17.30
2023-02-28T17:17:28.204Z,17.40
2023-02-28T17:20:03.876Z,16.10
2023-02-28T17:22:38.469Z,16.80
2023-02-28T17:25:18.848Z,16.90
2023-02-28T17:27:56.019Z,15.60
2023-02-28T17:30:32.985Z,17.60
2023-02-28T17:33:12.852Z,18.10
2023-02-28T17:35:52.180Z,17.60
2023-02-28T17:38:27.247Z,18.40
2023-02-28T17:41:02.485Z,18.10
2023-02-28T17:43:36.659Z,19.60
2023-02-28T17:46:22.421Z,18.80
2023-02-28T17:48:59.247Z,19.40
2023-02-28T17:51:33.980Z,18.60
2023-02-28T17:54:09.454Z,18.60
2023-02-28T17:56:47.806Z,18.70
2023-02-28T17:59:23.119Z,19.90
2023-02-28T18:01:58.196Z,18.70
2023-02-28T18:04:33.834Z,20.30
2023-02-28T18:07:12.740Z,20.80
2023-02-28T18:09:48.483Z,21.10
2023-02-28T18:12:24.642Z,20.30
2023-02-28T18:15:08.853Z,20.10
2023-02-28T18:17:43.753Z,21.50
2023-02-28T18:20:21.269Z,22.60
2023-02-28T18:22:57.152Z,24.10
2023-02-28T18:25:33.085Z,24.50
2023-02-28T18:28:08.653Z,24.50
2023-02-28T18:30:44.968Z,28.20
2023-02-28T18:33:22.362Z,24.30
2023-02-28T18:36:03.607Z,26.40
2023-02-28T18:38:42.957Z,21.80
2023-02-28T18:41:21.171Z,23.10
2023-02-28T18:43:59.753Z,23.30
2023-02-28T18:46:45.037Z,24.30
2023-02-28T18:49:26.998Z,22.30
2023-02-28T18:52:03.786Z,25.90
2023-02-28T18:54:40.790Z,30.00
2023-02-28T18:57:17.746Z,32.00
2023-02-28T18:59:56.003Z,29.50
2023-02-28T19:02:33.025Z,34.00
2023-02-28T19:05:12.591Z,34.20
2023-02-28T19:07:49.912Z,35.60
2023-02-28T19:10:29.519Z,36.50
2023-02-28T19:13:07.116Z,33.90
2023-02-28T19:15:43.204Z,34.30
2023-02-28T19:18:20.056Z,34.20
2023-02-28T19:20:56.476Z,34.80
2023-02-28T19:23:35.473Z,32.30
2023-02-28T19:26:16.704Z,31.50
2023-02-28T19:29:02.876Z,29.50
2023-02-28T19:31:41.636Z,28.20
2023-02-28T19:34:20.266Z,28.60
2023-02-28T19:37:03.629Z,25.90
2023-02-28T19:39:45.990Z,27.10
2023-02-28T19:42:23.247Z,27.00
2023-02-28T19:45:08.307Z,28.00
2023-02-28T19:47:46.990Z,29.00
2023-02-28T19:50:26.999Z,28.80
2023-02-28T19:53:05.207Z,28.80
2023-02-28T19:55:43.986Z,31.30
2023-02-28T19:58:22.744Z,28.40
2023-02-28T20:01:10.226Z,29.90
2023-02-28T20:03:49.467Z,31.60
2023-02-28T20:06:25.427Z,31.70
2023-02-28T20:09:02.316Z,29.70
2023-02-28T20:11:38.959Z,31.00
2023-02-28T20:14:16.108Z,33.00
2023-02-28T20:16:57.255Z,31.20
2023-02-28T20:19:40.436Z,30.80
2023-02-28T20:22:18.762Z,32.90
2023-02-28T20:24:57.409Z,31.70
2023-02-28T20:27:37.462Z,34.50
2023-02-28T20:30:16.340Z,32.70
2023-02-28T20:32:52.531Z,34.00
2023-02-28T20:35:29.113Z,33.10
2023-02-28T20:38:08.820Z,31.70
2023-02-28T20:40:46.945Z,31.40
2023-02-28T20:43:26.474Z,35.10
2023-02-28T20:46:03.526Z,31.70
2023-02-28T20:48:40.700Z,32.40
2023-02-28T20:51:16.010Z,33.20
2023-02-28T20:53:53.157Z,33.10
2023-02-28T20:56:28.224Z,33.70
2023-02-28T20:59:03.394Z,31.90
2023-02-28T21:01:41.264Z,33.50
2023-02-28T21:04:16.268Z,32.60
2023-02-28T21:06:53.957Z,33.00
2023-02-28T21:09:29.488Z,32.50
2023-02-28T21:12:04.220Z,32.90
2023-02-28T21:14:38.868Z,33.80
2023-02-28T21:17:15.101Z,33.10
2023-02-28T21:19:48.682Z,31.10
2023-02-28T21:22:25.849Z,32.40
2023-02-28T21:25:00.270Z,33.20
2023-02-28T21:27:35.376Z,35.70
2023-02-28T21:30:11.629Z,34.90
2023-02-28T21:32:45.845Z,33.40
2023-02-28T21:35:19.850Z,35.20
2023-02-28T21:37:54.409Z,36.40
2023-02-28T21:40:28.409Z,36.00
2023-02-28T21:43:02.278Z,37.10
2023-02-28T21:45:37.482Z,37.40
2023-02-28T21:48:11.927Z,37.00
2023-02-28T21:50:56.284Z,37.20
2023-02-28T21:53:29.993Z,37.60
2023-02-28T21:56:06.293Z,36.60
2023-02-28T21:58:40.057Z,35.70
2023-02-28T22:01:15.764Z,35.50
2023-02-28T22:03:50.983Z,36.30
2023-02-28T22:06:26.868Z,39.80
2023-02-28T22:09:02.753Z,35.80
2023-02-28T22:11:37.680Z,37.70
2023-02-28T22:14:12.616Z,38.10
2023-02-28T22:16:52.675Z,40.30
2023-02-28T22:19:29.063Z,37.40
2023-02-28T22:22:03.212Z,38.50
2023-02-28T22:24:36.860Z,35.30
2023-02-28T22:27:10.726Z,36.70
2023-02-28T22:29:44.519Z,38.20
2023-02-28T22:32:18.253Z,35.10
2023-02-28T22:34:53.770Z,39.70
2023-02-28T22:37:27.118Z,35.40
2023-02-28T22:40:00.632Z,34.70
2023-02-28T22:42:36.157Z,35.90
2023-02-28T22:45:11.570Z,36.20
2023-02-28T22:47:45.122Z,34.00
2023-02-28T22:50:19.455Z,36.40
2023-02-28T22:52:53.599Z,38.10
2023-02-28T22:55:27.157Z,36.70
2023-02-28T22:58:00.471Z,36.90
2023-02-28T23:00:34.401Z,37.20
2023-02-28T23:03:24.888Z,36.60
2023-02-28T23:06:21.253Z,36.50
2023-02-28T23:09:00.150Z,40.10
2023-02-28T23:11:35.969Z,38.50
2023-02-28T23:14:10.734Z,33.70
2023-02-28T23:16:47.550Z,34.20
2023-02-28T23:19:23.411Z,36.60
2023-02-28T23:21:57.010Z,35.50
2023-02-28T23:24:33.593Z,34.70
2023-02-28T23:27:08.697Z,36.10
2023-02-28T23:29:42.602Z,37.70
2023-02-28T23:32:16.230Z,37.20
2023-02-28T23:34:50.071Z,39.40
2023-02-28T23:37:23.619Z,38.20
2023-02-28T23:39:57.795Z,40.50
2023-02-28T23:42:32.120Z,39.70
2023-02-28T23:45:06.780Z,39.20
2023-02-28T23:47:40.786Z,36.10
2023-02-28T23:50:15.487Z,37.30
2023-02-28T23:52:49.015Z,38.70
2023-02-28T23:55:22.826Z,36.40
2023-02-28T23:57:56.229Z,35.60
